Time;durP1;ratioP1;P1;durP2;ratioP2;P2;SDS_P1;SDS_P2;PMS_P1;PMS_P2;Temp;Humidity;BMP_temperature;BMP_pressure;BME280_temperature;BME280_humidity;BME280_pressure;Samples;Min_cycle;Max_cycle;Signal;HPM_P1;HPM_P2
2022/01/21 06:03:04;;;;;;;21.48;1.30;;;3.00;99.90;;;;;;6243268;22;20032;-87
2022/01/21 06:09:43;;;;;;;13.10;1.63;;;2.30;99.90;;;;;;6245296;23;20044;-84
2022/01/21 06:12:26;;;;;;;;;;;2.70;99.90;;;;;;6193837;23;20054;-84
2022/01/21 06:27:25;;;;;;;;;;;;;;;;;;;;;
2022/01/21 06:31:09;;;;;;;8.77;1.50;;;2.50;99.90;;;;;;5975435;23;20020;-86
2022/01/21 06:37:41;;;;;;;24.05;1.60;;;3.20;99.90;;;;;;5841706;24;20122;-85
2022/01/21 06:40:10;;;;;;;12.02;1.58;;;2.60;99.90;;;;;;5819495;24;20440;-85
2022/01/21 06:42:36;;;;;;;16.48;1.60;;;4.00;99.90;;;;;;5819127;24;20616;-83
2022/01/21 06:45:02;;;;;;;13.95;1.70;;;3.80;99.90;;;;;;5797699;24;20018;-84
2022/01/21 06:47:29;;;;;;;16.73;2.15;;;3.00;99.90;;;;;;5818896;24;20017;-87
2022/01/21 06:49:58;;;;;;;18.10;2.20;;;2.90;99.90;;;;;;5818845;24;20462;-86
2022/01/21 06:52:25;;;;;;;20.23;1.98;;;3.00;99.90;;;;;;5816185;24;20102;-83
2022/01/21 06:55:02;;;;;;;18.55;2.15;;;2.70;99.90;;;;;;5882825;24;20108;-87
2022/01/21 06:57:29;;;;;;;23.50;2.30;;;2.60;99.90;;;;;;5923069;24;20032;-86
2022/01/21 07:00:13;;;;;;;16.38;2.10;;;2.50;99.90;;;;;;5922435;24;20376;-84
2022/01/21 07:02:39;;;;;;;14.75;2.60;;;2.40;99.90;;;;;;5942735;24;20346;-88
2022/01/21 07:05:11;;;;;;;20.80;2.20;;;3.30;99.90;;;;;;5949559;24;20572;-88
2022/01/21 07:07:40;;;;;;;21.55;2.42;;;2.20;99.90;;;;;;5947049;24;20032;-85
2022/01/21 07:10:07;;;;;;;14.07;2.25;;;2.20;99.90;;;;;;5968444;23;20046;-86
2022/01/21 07:12:34;;;;;;;18.98;2.97;;;2.10;99.90;;;;;;6065452;23;20014;-88
2022/01/21 07:15:00;;;;;;;21.17;3.47;;;2.80;99.90;;;;;;6210252;23;20665;-83
2022/01/21 07:17:26;;;;;;;20.50;3.53;;;2.00;99.90;;;;;;6187533;23;20027;-85
2022/01/21 07:19:52;;;;;;;18.98;3.42;;;2.00;99.90;;;;;;6168942;23;20091;-87
2022/01/21 07:22:17;;;;;;;23.30;2.75;;;1.90;99.90;;;;;;6164325;23;20436;-89
2022/01/21 07:24:43;;;;;;;20.13;2.90;;;1.80;99.90;;;;;;6160969;23;20023;-90
2022/01/21 07:27:09;;;;;;;15.32;2.53;;;1.90;99.90;;;;;;6165739;23;20012;-82
2022/01/21 07:29:35;;;;;;;23.95;2.80;;;2.40;99.90;;;;;;6195484;23;20099;-82
2022/01/21 07:32:01;;;;;;;22.30;2.42;;;1.90;99.90;;;;;;6166347;23;20051;-82
2022/01/21 07:34:27;;;;;;;20.60;2.50;;;1.90;99.90;;;;;;6162588;23;20016;-85
2022/01/21 07:36:54;;;;;;;16.42;2.40;;;1.90;99.90;;;;;;6187882;23;20051;-84
2022/01/21 07:39:20;;;;;;;25.48;2.85;;;2.00;99.90;;;;;;6162580;23;20099;-84
2022/01/21 07:41:46;;;;;;;19.83;2.35;;;2.00;99.90;;;;;;6162244;23;20031;-84
2022/01/21 07:44:12;;;;;;;24.83;2.83;;;2.20;99.90;;;;;;6162604;23;20385;-85
2022/01/21 07:46:39;;;;;;;25.05;2.55;;;2.30;99.90;;;;;;6187213;23;20016;-84
2022/01/21 07:49:06;;;;;;;24.98;2.08;;;2.40;99.90;;;;;;6162472;23;20451;-86
2022/01/21 07:51:33;;;;;;;17.60;2.33;;;2.50;99.90;;;;;;6161564;23;20325;-85
2022/01/21 07:53:59;;;;;;;17.52;2.05;;;2.60;99.90;;;;;;6185704;23;20071;-86
2022/01/21 07:56:24;;;;;;;22.35;2.50;;;3.40;99.90;;;;;;6161100;23;20339;-83
2022/01/21 07:58:51;;;;;;;25.50;3.55;;;2.70;99.90;;;;;;6187551;23;20031;-79
2022/01/21 08:01:17;;;;;;;21.70;2.67;;;2.70;99.90;;;;;;6161884;23;20310;-84
2022/01/21 08:03:42;;;;;;;24.95;3.45;;;2.90;99.90;;;;;;6205712;23;20024;-81
2022/01/21 08:06:08;;;;;;;22.50;3.30;;;2.70;99.90;;;;;;6216340;23;20583;-83
2022/01/21 08:08:34;;;;;;;24.67;2.85;;;2.70;99.90;;;;;;6188929;23;20031;-82
2022/01/21 08:10:59;;;;;;;28.95;3.30;;;3.10;99.90;;;;;;6191142;23;20657;-80
2022/01/21 08:13:27;;;;;;;25.52;2.70;;;2.70;99.90;;;;;;6244834;23;20015;-80
2022/01/21 08:15:53;;;;;;;19.58;2.28;;;2.70;99.90;;;;;;6216905;23;20022;-78
2022/01/21 08:18:19;;;;;;;20.65;2.42;;;2.70;99.90;;;;;;6215506;23;20016;-80
2022/01/21 08:20:48;;;;;;;31.23;2.92;;;2.60;99.90;;;;;;6214981;23;20016;-84
2022/01/21 08:23:14;;;;;;;23.45;3.22;;;2.60;99.90;;;;;;6188974;23;20016;-82
2022/01/21 08:25:40;;;;;;;21.90;2.38;;;2.70;99.90;;;;;;6215316;23;20019;-83
2022/01/21 08:28:07;;;;;;;28.52;2.88;;;2.60;99.90;;;;;;6216151;23;20012;-80
2022/01/21 08:30:33;;;;;;;23.13;2.40;;;2.60;99.90;;;;;;6214368;23;20008;-81
2022/01/21 08:33:00;;;;;;;21.60;2.67;;;2.70;99.90;;;;;;6216053;23;20014;-80
2022/01/21 08:35:29;;;;;;;26.00;2.80;;;2.80;99.90;;;;;;6189982;23;20026;-82
2022/01/21 08:37:55;;;;;;;20.25;3.03;;;2.80;99.90;;;;;;6215514;23;20148;-82
2022/01/21 08:40:22;;;;;;;25.08;3.38;;;2.90;99.90;;;;;;6188858;23;20461;-80
2022/01/21 08:42:48;;;;;;;22.23;3.33;;;3.00;99.90;;;;;;6212843;23;20023;-80
2022/01/21 08:45:20;;;;;;;23.90;2.75;;;3.00;99.90;;;;;;6187867;23;20016;-83
2022/01/21 08:47:46;;;;;;;27.98;2.85;;;3.20;99.90;;;;;;6152181;23;20013;-82
2022/01/21 08:50:17;;;;;;;27.42;3.17;;;3.20;99.90;;;;;;6150430;23;20044;-77
2022/01/21 08:52:43;;;;;;;30.10;3.53;;;3.70;99.90;;;;;;6153928;23;20051;-78
2022/01/21 08:55:15;;;;;;;35.85;2.75;;;3.30;99.90;;;;;;6151240;23;20100;-78
2022/01/21 08:57:43;;;;;;;31.98;3.40;;;3.50;99.90;;;;;;6152682;23;20410;-80
2022/01/21 09:00:29;;;;;;;28.13;3.65;;;3.50;99.90;;;;;;6154423;23;20049;-77
2022/01/21 09:02:57;;;;;;;33.20;3.58;;;3.50;99.90;;;;;;6151317;23;20028;-81
2022/01/21 09:05:26;;;;;;;24.05;3.85;;;4.20;99.90;;;;;;6129648;23;20032;-81
2022/01/21 09:07:52;;;;;;;25.27;2.83;;;4.30;99.90;;;;;;6156718;23;20019;-82
2022/01/21 09:10:18;;;;;;;29.58;3.00;;;4.20;99.90;;;;;;6131386;23;20071;-81
2022/01/21 09:12:43;;;;;;;26.52;3.35;;;3.70;99.90;;;;;;6132583;23;20172;-78
2022/01/21 09:15:11;;;;;;;25.02;2.65;;;3.70;99.90;;;;;;6132063;23;20450;-78
2022/01/21 09:17:37;;;;;;;28.83;3.47;;;3.80;99.90;;;;;;6156482;23;20017;-79
2022/01/21 09:20:04;;;;;;;34.00;3.05;;;4.10;99.90;;;;;;6161565;23;20040;-79
2022/01/21 09:22:29;;;;;;;33.13;3.70;;;3.80;99.90;;;;;;6186157;23;20020;-81
2022/01/21 09:24:55;;;;;;;32.85;3.53;;;4.30;99.90;;;;;;6186709;23;20016;-81
2022/01/21 09:27:21;;;;;;;26.27;2.72;;;3.90;99.90;;;;;;6185331;23;20012;-80
2022/01/21 09:29:46;;;;;;;27.90;3.10;;;3.80;99.90;;;;;;6162658;23;20004;-79
2022/01/21 09:32:12;;;;;;;23.35;3.22;;;3.90;99.90;;;;;;6163209;23;20043;-81
2022/01/21 09:34:38;;;;;;;25.92;3.33;;;3.80;99.90;;;;;;6138013;23;20051;-80
2022/01/21 09:37:17;;;;;;;33.15;3.42;;;4.20;99.90;;;;;;6162790;23;20016;-82
2022/01/21 09:39:43;;;;;;;32.53;3.63;;;4.00;99.90;;;;;;6162965;23;20013;-80
2022/01/21 09:42:14;;;;;;;32.13;4.50;;;4.10;99.90;;;;;;6163671;23;20012;-81
2022/01/21 09:44:40;;;;;;;26.52;3.65;;;4.70;99.90;;;;;;6163428;23;20329;-80
2022/01/21 09:47:06;;;;;;;23.10;2.80;;;4.20;99.90;;;;;;6163463;23;20333;-80
2022/01/21 09:49:34;;;;;;;26.95;3.90;;;4.20;99.90;;;;;;6187108;23;20009;-80
2022/01/21 09:52:13;;;;;;;28.25;3.28;;;4.30;99.90;;;;;;6214857;23;20207;-83
2022/01/21 09:54:47;;;;;;;23.90;2.95;;;4.60;99.90;;;;;;6161364;23;20047;-80
2022/01/21 09:57:22;;;;;;;22.80;2.85;;;4.40;99.90;;;;;;6188310;23;20016;-81
2022/01/21 09:59:51;;;;;;;24.60;3.10;;;4.50;99.90;;;;;;6187591;23;20008;-81
2022/01/21 10:02:21;;;;;;;28.63;3.10;;;4.60;99.90;;;;;;6160580;23;20098;-81
2022/01/21 10:04:49;;;;;;;25.80;2.70;;;4.70;99.90;;;;;;6216410;23;20032;-81
2022/01/21 10:07:17;;;;;;;21.90;2.78;;;4.70;99.90;;;;;;6216949;23;20020;-81
2022/01/21 10:09:45;;;;;;;22.15;2.80;;;4.90;99.90;;;;;;6191116;23;20015;-82
2022/01/21 10:12:15;;;;;;;19.13;2.58;;;4.90;99.90;;;;;;6191416;23;20016;-80
2022/01/21 10:14:50;;;;;;;22.38;2.85;;;5.20;99.90;;;;;;6215694;23;20043;-81
2022/01/21 10:17:19;;;;;;;25.15;2.50;;;5.20;99.90;;;;;;6216004;23;20088;-81
2022/01/21 10:19:48;;;;;;;18.95;2.92;;;5.20;99.90;;;;;;6216956;23;20095;-80
2022/01/21 10:22:18;;;;;;;20.67;2.70;;;5.30;99.90;;;;;;6189430;23;20397;-82
2022/01/21 10:24:54;;;;;;;29.58;3.33;;;5.50;99.90;;;;;;6189106;23;20012;-80
2022/01/21 10:27:41;;;;;;;24.27;2.75;;;5.50;99.90;;;;;;6191875;23;20016;-79
2022/01/21 10:30:25;;;;;;;21.77;2.95;;;6.00;99.90;;;;;;6191558;23;20332;-78
2022/01/21 10:32:51;;;;;;;18.83;2.30;;;5.60;99.90;;;;;;6217049;23;20012;-78
2022/01/21 10:35:29;;;;;;;27.95;2.97;;;5.60;99.90;;;;;;6218370;23;20091;-78
2022/01/21 10:37:58;;;;;;;;;;;5.70;99.90;;;;;;6215951;23;20082;-79
2022/01/21 10:40:33;;;;;;;25.13;2.95;;;5.70;99.90;;;;;;6216312;23;20307;-78
2022/01/21 10:43:11;;;;;;;25.42;3.15;;;5.70;99.90;;;;;;6191713;23;20019;-79
2022/01/21 10:46:04;;;;;;;27.42;2.92;;;5.70;99.90;;;;;;6216756;23;20047;-85
2022/01/21 10:49:01;;;;;;;36.58;3.72;;;5.70;99.90;;;;;;6192522;23;20068;-83
2022/01/21 10:51:37;;;;;;;29.03;3.67;;;5.80;99.90;;;;;;6191670;23;20012;-83
2022/01/21 10:54:16;;;;;;;21.60;2.88;;;6.80;99.90;;;;;;6191569;23;20034;-82
2022/01/21 10:57:12;;;;;;;25.55;3.45;;;6.50;99.90;;;;;;6192177;23;20440;-81
2022/01/21 10:59:50;;;;;;;28.90;3.00;;;7.50;99.90;;;;;;6192343;23;20061;-82
2022/01/21 11:02:30;;;;;;;29.02;3.25;;;6.60;99.90;;;;;;6191323;23;20053;-80
2022/01/21 11:13:11;;;;;;;28.30;2.88;;;6.60;99.90;;;;;;5978107;24;20056;-82
2022/01/21 11:23:05;;;;;;;11.07;1.92;;;6.80;99.90;;;;;;5844735;24;20179;-79
2022/01/21 11:25:47;;;;;;;11.05;1.90;;;6.90;99.90;;;;;;5846086;24;20037;-81
2022/01/21 11:28:50;;;;;;;24.33;2.85;;;6.90;99.90;;;;;;5846031;24;20018;-83
2022/01/21 11:31:28;;;;;;;18.30;2.30;;;6.80;99.90;;;;;;5844246;24;20025;-83
2022/01/21 11:33:53;;;;;;;13.68;2.42;;;6.90;99.90;;;;;;5845834;24;20018;-77
2022/01/21 11:36:19;;;;;;;18.48;2.28;;;7.00;99.90;;;;;;5844546;24;20036;-79
2022/01/21 11:38:48;;;;;;;16.55;2.30;;;7.00;99.90;;;;;;5845234;24;20057;-80
2022/01/21 11:41:15;;;;;;;20.80;2.28;;;7.00;99.90;;;;;;5871522;24;20022;-77
2022/01/21 11:43:55;;;;;;;20.83;2.35;;;7.00;99.90;;;;;;5845216;24;20030;-81
2022/01/21 11:49:01;;;;;;;17.27;1.90;;;7.00;99.90;;;;;;6014886;23;20029;-77
2022/01/21 11:51:37;;;;;;;24.08;2.75;;;6.90;99.90;;;;;;6042737;23;20113;-79
2022/01/21 11:54:05;;;;;;;19.95;2.00;;;7.00;99.90;;;;;;6042388;23;20643;-79
2022/01/21 11:56:46;;;;;;;22.17;2.58;;;7.00;99.90;;;;;;6182952;23;20020;-78
2022/01/21 11:59:25;;;;;;;23.50;2.08;;;7.00;99.90;;;;;;6216087;23;20016;-78
2022/01/21 12:01:52;;;;;;;19.15;2.10;;;7.00;99.90;;;;;;6217064;23;20037;-78
2022/01/21 12:04:30;;;;;;;21.50;2.28;;;6.90;99.90;;;;;;6190450;23;20452;-77
2022/01/21 12:07:00;;;;;;;20.80;2.40;;;6.90;99.90;;;;;;6191582;23;20298;-76
2022/01/21 12:09:59;;;;;;;18.33;1.95;;;7.00;99.90;;;;;;6215540;23;20051;-80
2022/01/21 12:13:01;;;;;;;20.88;2.60;;;7.00;99.90;;;;;;6149181;23;20456;-78
2022/01/21 12:15:31;;;;;;;18.92;2.08;;;7.10;99.90;;;;;;6124500;23;20018;-77
2022/01/21 12:20:59;;;;;;;16.73;2.08;;;7.10;99.90;;;;;;6124793;23;20022;-77
2022/01/21 12:23:30;;;;;;;8.25;1.60;;;7.20;99.90;;;;;;6124204;23;20024;-78
2022/01/21 12:26:14;;;;;;;7.72;1.23;;;7.20;99.90;;;;;;6124070;23;20028;-78
2022/01/21 12:28:46;;;;;;;13.68;1.83;;;7.10;99.90;;;;;;6125460;23;20017;-79
2022/01/21 12:31:14;;;;;;;10.30;1.60;;;7.20;99.90;;;;;;6125738;23;20362;-79
2022/01/21 12:33:53;;;;;;;16.73;2.40;;;7.20;99.90;;;;;;6100916;23;20021;-78
2022/01/21 12:36:31;;;;;;;21.05;2.05;;;7.20;99.90;;;;;;6126343;23;20096;-78
2022/01/21 12:41:35;;;;;;;18.40;2.42;;;7.10;99.90;;;;;;6125285;23;20048;-78
2022/01/21 12:44:03;;;;;;;17.92;2.17;;;7.10;99.90;;;;;;6100537;23;20025;-78
2022/01/21 12:46:34;;;;;;;14.85;1.88;;;7.10;99.90;;;;;;6125662;23;20430;-79
2022/01/21 12:49:21;;;;;;;20.67;2.40;;;7.10;99.90;;;;;;6160862;23;20091;-80
2022/01/21 12:52:12;;;;;;;18.98;2.45;;;7.10;99.90;;;;;;6188644;23;20012;-79
2022/01/21 12:57:33;;;;;;;19.08;2.70;;;7.20;99.90;;;;;;6214305;23;20470;-80
2022/01/21 13:00:08;;;;;;;22.23;2.05;;;7.30;99.90;;;;;;6192275;23;20041;-78
2022/01/21 13:02:34;;;;;;;16.08;1.85;;;7.20;99.90;;;;;;6188314;22;20020;-79
2022/01/21 13:05:11;;;;;;;13.20;1.83;;;7.20;99.90;;;;;;6214870;23;20499;-77
2022/01/21 13:07:58;;;;;;;18.10;2.25;;;7.20;99.90;;;;;;6190171;23;20337;-76
2022/01/21 13:10:27;;;;;;;20.70;2.67;;;7.10;99.90;;;;;;6215719;23;20012;-77
2022/01/21 13:15:38;;;;;;;23.98;2.85;;;7.00;99.90;;;;;;6215683;23;20020;-77
2022/01/21 13:18:05;;;;;;;19.95;2.80;;;7.00;99.90;;;;;;6190310;23;20012;-77
2022/01/21 13:20:34;;;;;;;23.50;2.70;;;7.10;99.90;;;;;;6190177;23;20087;-77
2022/01/21 13:23:01;;;;;;;20.10;2.83;;;7.20;99.90;;;;;;6215408;23;20016;-83
2022/01/21 13:25:28;;;;;;;27.58;2.97;;;7.00;99.90;;;;;;6189276;23;20496;-78
2022/01/21 13:27:58;;;;;;;20.13;2.83;;;7.00;99.90;;;;;;6214531;23;20027;-77
2022/01/21 13:30:29;;;;;;;30.52;3.80;;;7.10;99.90;;;;;;6214852;23;20019;-77
2022/01/21 13:33:12;;;;;;;19.42;2.38;;;7.00;99.90;;;;;;6190084;23;20008;-77
2022/01/21 13:35:44;;;;;;;21.58;2.90;;;7.00;99.90;;;;;;6192423;23;20012;-78
2022/01/21 13:38:18;;;;;;;23.23;2.97;;;7.00;99.90;;;;;;6214772;23;20463;-76
2022/01/21 13:40:50;;;;;;;21.75;2.85;;;7.00;99.90;;;;;;6213640;23;20088;-78
2022/01/21 13:43:28;;;;;;;17.02;2.00;;;7.00;99.90;;;;;;6214661;23;20012;-77
2022/01/21 13:46:01;;;;;;;19.73;3.05;;;6.90;99.90;;;;;;6214040;23;20656;-76
2022/01/21 13:48:29;;;;;;;19.80;1.85;;;7.00;99.90;;;;;;6214303;23;20020;-76
2022/01/21 13:50:57;;;;;;;13.88;2.30;;;7.00;99.90;;;;;;6187587;23;20584;-77
2022/01/21 13:53:23;;;;;;;22.38;2.13;;;7.00;99.90;;;;;;6216474;23;20018;-76
2022/01/21 13:55:51;;;;;;;21.33;2.55;;;7.00;99.90;;;;;;6214541;23;20091;-76
2022/01/21 13:58:23;;;;;;;25.45;2.67;;;7.10;99.90;;;;;;6215998;23;20084;-76
2022/01/21 14:00:57;;;;;;;20.58;2.10;;;7.10;99.90;;;;;;6216533;23;20016;-77
2022/01/21 14:03:27;;;;;;;22.23;2.40;;;7.10;99.90;;;;;;6215766;23;20502;-77
2022/01/21 14:06:02;;;;;;;20.42;2.15;;;7.00;99.90;;;;;;6215933;23;20725;-76
2022/01/21 14:08:48;;;;;;;28.98;2.88;;;7.10;99.90;;;;;;6215907;23;20161;-75
2022/01/21 14:11:45;;;;;;;22.90;3.00;;;7.10;99.90;;;;;;6216949;23;20012;-76
2022/01/21 14:14:11;;;;;;;22.10;3.17;;;7.10;99.90;;;;;;6191304;23;20023;-78
2022/01/21 14:16:39;;;;;;;21.73;3.08;;;7.10;99.90;;;;;;6192574;23;20012;-80
2022/01/21 14:19:10;;;;;;;28.65;3.53;;;7.10;99.90;;;;;;6190691;23;20012;-81
2022/01/21 14:21:37;;;;;;;27.23;3.00;;;7.30;99.90;;;;;;6215946;23;20012;-79
2022/01/21 14:24:18;;;;;;;17.63;2.45;;;7.40;99.90;;;;;;6190121;23;20016;-78
2022/01/21 14:26:50;;;;;;;25.42;2.63;;;7.10;99.90;;;;;;6190036;23;20019;-78
2022/01/21 14:29:17;;;;;;;11.70;1.67;;;7.20;99.90;;;;;;6190481;23;20012;-79
2022/01/21 14:31:44;;;;;;;17.80;1.70;;;7.10;99.90;;;;;;6216483;23;20009;-80
2022/01/21 14:34:13;;;;;;;24.52;2.45;;;7.20;99.90;;;;;;6189578;23;20341;-81
2022/01/21 14:36:40;;;;;;;12.70;1.90;;;7.20;99.90;;;;;;6190686;23;20054;-81
2022/01/21 14:39:09;;;;;;;17.35;2.47;;;7.20;99.90;;;;;;6214273;23;20543;-80
2022/01/21 14:41:39;;;;;;;24.83;3.03;;;7.30;99.90;;;;;;6191562;23;20017;-81
2022/01/21 14:44:05;;;;;;;18.13;2.22;;;7.20;99.90;;;;;;6166243;23;20016;-80
2022/01/21 14:46:31;;;;;;;23.83;2.13;;;7.50;99.90;;;;;;6215702;23;20026;-78
2022/01/21 14:48:59;;;;;;;26.95;2.50;;;7.40;99.90;;;;;;6189591;23;20154;-78
2022/01/21 14:51:35;;;;;;;22.73;2.65;;;7.10;99.90;;;;;;6215949;23;20043;-78
2022/01/21 14:54:12;;;;;;;14.73;1.95;;;7.20;99.90;;;;;;6214079;23;20035;-78
2022/01/21 14:56:38;;;;;;;24.35;2.72;;;7.00;99.90;;;;;;6190019;23;20020;-77
2022/01/21 14:59:22;;;;;;;18.88;1.88;;;7.00;99.90;;;;;;6215124;23;20046;-78
2022/01/21 15:02:03;;;;;;;16.15;2.20;;;6.90;99.90;;;;;;6191156;23;20018;-77
2022/01/21 15:04:35;;;;;;;14.60;2.05;;;7.00;99.90;;;;;;6186924;23;20311;-78
2022/01/21 15:07:23;;;;;;;8.27;1.13;;;6.90;99.90;;;;;;6214010;23;20078;-77
2022/01/21 15:09:52;;;;;;;13.63;1.70;;;7.00;99.90;;;;;;6212707;23;20099;-78
2022/01/21 15:15:25;;;;;;;13.32;1.45;;;7.10;99.90;;;;;;6213035;23;20352;-77
2022/01/21 15:17:55;;;;;;;12.13;1.55;;;7.10;99.90;;;;;;6214008;23;20016;-77
2022/01/21 15:20:33;;;;;;;7.30;1.05;;;6.90;99.90;;;;;;6214140;23;20052;-78
2022/01/21 15:23:01;;;;;;;13.40;1.63;;;6.80;99.90;;;;;;6214022;23;20089;-79
2022/01/21 15:25:27;;;;;;;9.73;1.35;;;6.80;99.90;;;;;;6215303;23;20024;-76
2022/01/21 15:27:53;;;;;;;11.93;1.42;;;6.90;99.90;;;;;;6215960;23;20008;-77
2022/01/21 15:30:19;;;;;;;10.88;1.55;;;6.90;99.90;;;;;;6215132;23;20014;-75
2022/01/21 15:32:45;;;;;;;13.35;2.17;;;6.80;99.90;;;;;;6191137;23;20408;-77
2022/01/21 15:35:11;;;;;;;13.07;1.70;;;6.90;99.90;;;;;;6214897;23;20086;-77
2022/01/21 15:37:37;;;;;;;14.85;1.83;;;6.80;99.90;;;;;;6214372;23;20017;-79
2022/01/21 15:40:04;;;;;;;12.13;1.48;;;6.80;99.90;;;;;;6212951;23;20344;-77
2022/01/21 15:42:30;;;;;;;11.55;1.42;;;6.70;99.90;;;;;;6214514;23;20447;-78
2022/01/21 15:44:57;;;;;;;7.70;1.20;;;6.80;99.90;;;;;;6213887;23;20020;-78
2022/01/21 15:47:24;;;;;;;12.80;1.60;;;6.70;99.90;;;;;;6213456;23;20424;-81
2022/01/21 15:49:50;;;;;;;16.02;1.88;;;6.70;99.90;;;;;;6213435;23;20078;-80
2022/01/21 15:52:15;;;;;;;13.10;1.50;;;6.90;99.90;;;;;;6214392;23;20405;-77
2022/01/21 15:54:41;;;;;;;17.55;1.55;;;6.70;99.90;;;;;;6212700;23;20286;-77
2022/01/21 15:57:08;;;;;;;6.63;1.02;;;6.60;99.90;;;;;;6214313;23;20302;-77
2022/01/21 15:59:35;;;;;;;10.55;1.70;;;6.60;99.90;;;;;;6214099;23;20070;-77
2022/01/21 16:02:04;;;;;;;7.97;0.95;;;6.70;99.90;;;;;;6213242;23;20031;-77
2022/01/21 16:04:31;;;;;;;10.05;1.35;;;6.70;99.90;;;;;;6186696;23;20095;-78
2022/01/21 16:06:56;;;;;;;11.45;1.42;;;6.60;99.90;;;;;;6215709;23;20020;-78
2022/01/21 16:09:22;;;;;;;10.13;1.40;;;6.50;99.90;;;;;;6186312;23;20142;-78
2022/01/21 16:11:48;;;;;;;14.73;2.38;;;6.60;99.90;;;;;;6189776;23;20016;-78
2022/01/21 16:14:14;;;;;;;9.95;1.55;;;6.60;99.90;;;;;;6188121;23;20313;-78
2022/01/21 16:16:41;;;;;;;14.88;1.75;;;6.60;99.90;;;;;;6189788;23;20016;-78
2022/01/21 16:19:09;;;;;;;12.52;1.80;;;6.70;99.90;;;;;;6190343;23;20016;-77
2022/01/21 16:21:37;;;;;;;17.20;1.85;;;6.60;99.90;;;;;;6215277;23;20325;-78
2022/01/21 16:24:03;;;;;;;15.38;2.35;;;6.60;99.90;;;;;;6184533;23;20053;-80
2022/01/21 16:26:29;;;;;;;11.77;1.38;;;6.60;99.90;;;;;;6214193;23;20012;-80
2022/01/21 16:28:54;;;;;;;9.93;1.27;;;6.60;99.90;;;;;;6214567;23;20012;-76
2022/01/21 16:31:20;;;;;;;14.32;2.22;;;6.60;99.90;;;;;;6214970;23;20027;-74
2022/01/21 16:33:46;;;;;;;11.75;1.65;;;6.60;99.90;;;;;;6187523;23;20015;-76
2022/01/21 16:36:13;;;;;;;15.13;1.73;;;6.60;99.90;;;;;;6212413;23;20016;-78
2022/01/21 16:38:40;;;;;;;15.43;1.92;;;6.60;99.90;;;;;;6212356;23;20137;-78
2022/01/21 16:41:06;;;;;;;13.85;1.80;;;6.60;99.90;;;;;;6188496;23;20023;-78
2022/01/21 16:43:32;;;;;;;12.82;2.20;;;6.60;99.90;;;;;;6215219;23;20034;-79
2022/01/21 16:46:00;;;;;;;9.40;1.80;;;6.60;99.90;;;;;;6191116;23;20270;-83
2022/01/21 16:48:26;;;;;;;11.68;1.63;;;6.60;99.90;;;;;;6189669;23;20012;-78
2022/01/21 16:50:57;;;;;;;12.00;1.63;;;6.60;99.90;;;;;;6187875;23;20409;-77
2022/01/21 16:53:23;;;;;;;15.52;2.17;;;6.60;99.90;;;;;;6211612;23;20397;-78
2022/01/21 16:55:49;;;;;;;18.35;1.67;;;6.80;99.90;;;;;;6186388;23;20077;-79
2022/01/21 16:58:15;;;;;;;14.48;1.70;;;6.50;99.90;;;;;;6188250;23;20016;-78
2022/01/21 17:00:41;;;;;;;21.50;2.10;;;6.60;99.90;;;;;;6210896;23;20020;-78
2022/01/21 17:03:06;;;;;;;23.02;2.00;;;6.60;99.90;;;;;;6185147;23;20393;-76
2022/01/21 17:05:33;;;;;;;19.77;2.45;;;6.50;99.90;;;;;;6238995;23;20020;-79
2022/01/21 17:07:59;;;;;;;19.08;1.88;;;6.50;99.90;;;;;;6187637;23;20012;-76
2022/01/21 17:10:26;;;;;;;23.88;2.10;;;6.50;99.90;;;;;;6210695;23;20106;-78
2022/01/21 17:12:52;;;;;;;13.27;2.08;;;6.60;99.90;;;;;;6188896;23;20039;-77
2022/01/21 17:15:18;;;;;;;18.17;1.83;;;6.50;99.90;;;;;;6212310;23;20110;-78
2022/01/21 17:17:48;;;;;;;19.05;2.17;;;6.80;99.90;;;;;;6186183;23;20016;-79
2022/01/21 17:20:17;;;;;;;12.00;1.90;;;6.40;99.90;;;;;;6186121;23;20016;-80
2022/01/21 17:22:44;;;;;;;12.27;1.40;;;6.40;99.90;;;;;;6166290;23;20021;-77
2022/01/21 17:25:10;;;;;;;11.77;1.80;;;6.50;99.90;;;;;;6150051;23;20044;-80
2022/01/21 17:27:48;;;;;;;12.38;2.15;;;6.50;99.90;;;;;;6153906;23;20013;-82
2022/01/21 17:30:21;;;;;;;9.75;2.17;;;6.40;99.90;;;;;;6152857;23;20013;-83
2022/01/21 17:32:47;;;;;;;12.35;1.80;;;6.90;99.90;;;;;;6153269;23;20020;-79
2022/01/21 17:35:14;;;;;;;14.38;2.00;;;6.40;99.90;;;;;;6176793;23;20095;-81
2022/01/21 17:37:50;;;;;;;14.50;1.83;;;6.30;99.90;;;;;;6154294;23;20089;-85
2022/01/21 17:40:17;;;;;;;13.02;2.05;;;6.40;99.90;;;;;;6151393;23;20096;-79
2022/01/21 17:42:43;;;;;;;14.98;2.05;;;6.40;99.90;;;;;;6154184;23;20021;-79
2022/01/21 17:45:17;;;;;;;17.42;2.25;;;6.40;99.90;;;;;;6155250;23;20017;-79
2022/01/21 17:47:44;;;;;;;12.07;2.00;;;6.60;99.90;;;;;;6180662;23;20020;-77
2022/01/21 17:50:11;;;;;;;20.75;2.85;;;6.40;99.90;;;;;;6153017;23;20017;-78
2022/01/21 17:52:37;;;;;;;19.23;2.28;;;6.40;99.90;;;;;;6157807;23;20013;-78
2022/01/21 17:55:04;;;;;;;17.35;2.92;;;6.40;99.90;;;;;;6214377;23;20078;-77
2022/01/21 17:57:32;;;;;;;27.73;3.35;;;6.40;99.90;;;;;;6216324;23;20433;-80
2022/01/21 17:59:58;;;;;;;19.90;2.40;;;6.40;99.90;;;;;;6192690;23;20205;-80
2022/01/21 18:02:23;;;;;;;22.20;2.45;;;6.60;99.90;;;;;;6194005;23;20047;-83
2022/01/21 18:04:50;;;;;;;21.83;2.80;;;6.50;99.90;;;;;;6216669;23;20012;-77
2022/01/21 18:07:20;;;;;;;22.30;2.95;;;6.40;99.90;;;;;;6191537;23;20020;-78
2022/01/21 18:09:46;;;;;;;17.42;2.40;;;6.40;99.90;;;;;;6191790;23;20008;-80
2022/01/21 18:12:12;;;;;;;26.25;3.72;;;6.40;99.90;;;;;;6216745;23;20393;-80
2022/01/21 18:14:38;;;;;;;23.95;2.83;;;6.40;99.90;;;;;;6218027;23;20020;-80
2022/01/21 18:17:05;;;;;;;21.52;2.63;;;6.40;99.90;;;;;;6216981;23;20450;-79
2022/01/21 18:19:45;;;;;;;29.20;2.92;;;6.40;99.90;;;;;;6216957;23;20020;-82
2022/01/21 18:22:14;;;;;;;26.40;3.28;;;6.40;99.90;;;;;;6242846;23;20020;-78
2022/01/21 18:24:41;;;;;;;18.58;2.28;;;6.40;99.90;;;;;;6214906;23;20012;-78
2022/01/21 18:27:07;;;;;;;26.65;3.25;;;6.40;99.90;;;;;;6189839;23;20170;-77
2022/01/21 18:29:34;;;;;;;32.50;2.85;;;6.70;99.90;;;;;;6214632;23;20015;-77
2022/01/21 18:32:00;;;;;;;13.90;2.05;;;6.80;99.90;;;;;;6216314;23;20087;-79
2022/01/21 18:34:28;;;;;;;15.20;2.28;;;6.30;99.90;;;;;;6189955;23;20459;-76
2022/01/21 18:36:55;;;;;;;23.02;2.97;;;6.30;99.90;;;;;;6190000;23;20020;-77
2022/01/21 18:39:22;;;;;;;22.50;2.50;;;6.40;99.90;;;;;;6215001;23;20349;-78
2022/01/21 18:41:48;;;;;;;24.98;3.65;;;6.50;99.90;;;;;;6215222;23;20022;-79
2022/01/21 18:44:15;;;;;;;26.73;3.35;;;6.40;99.90;;;;;;6211264;23;20018;-76
2022/01/21 18:46:44;;;;;;;24.05;3.05;;;6.70;99.90;;;;;;6164880;23;20397;-78
2022/01/21 18:49:12;;;;;;;31.52;3.22;;;6.50;99.90;;;;;;6186270;23;20387;-79
2022/01/21 18:51:38;;;;;;;33.67;2.53;;;6.40;99.90;;;;;;6216915;23;20698;-80
2022/01/21 18:54:08;;;;;;;20.58;3.13;;;6.50;99.90;;;;;;6190256;23;20119;-81
2022/01/21 18:56:44;;;;;;;24.92;3.22;;;6.90;99.90;;;;;;6215147;23;20317;-80
2022/01/21 18:59:10;;;;;;;29.05;4.03;;;6.50;99.90;;;;;;6189267;23;20026;-79
2022/01/21 19:01:39;;;;;;;31.48;3.03;;;6.40;99.90;;;;;;6191053;23;20027;-81
2022/01/21 19:04:06;;;;;;;25.88;3.75;;;6.50;99.90;;;;;;6181725;23;20131;-81
2022/01/21 19:06:37;;;;;;;29.48;3.40;;;6.50;99.90;;;;;;6184066;23;20024;-81
2022/01/21 19:09:09;;;;;;;24.13;3.42;;;6.50;99.90;;;;;;6208587;23;20009;-82
2022/01/21 19:11:36;;;;;;;26.33;2.83;;;6.50;99.90;;;;;;6208365;23;20012;-81
2022/01/21 19:14:03;;;;;;;32.08;4.00;;;6.60;99.90;;;;;;6184203;23;20020;-82
2022/01/21 19:16:29;;;;;;;34.88;3.25;;;6.50;99.90;;;;;;6210406;23;20055;-81
2022/01/21 19:18:55;;;;;;;37.50;4.28;;;6.50;99.90;;;;;;6182571;23;20016;-80
2022/01/21 19:21:28;;;;;;;24.45;3.20;;;6.50;99.90;;;;;;6210633;23;20147;-84
2022/01/21 19:24:04;;;;;;;31.08;3.75;;;6.50;99.90;;;;;;6185218;23;20032;-84
2022/01/21 19:29:39;;;;;;;20.85;2.70;;;6.60;99.90;;;;;;6153626;23;20115;-82
2022/01/21 19:32:07;;;;;;;30.30;4.13;;;6.50;99.90;;;;;;6129040;23;20052;-83
2022/01/21 19:34:34;;;;;;;24.35;2.55;;;6.50;99.90;;;;;;6153294;23;20012;-82
2022/01/21 19:37:06;;;;;;;25.00;3.13;;;6.50;99.90;;;;;;6153452;23;20060;-85
2022/01/21 19:43:09;;;;;;;28.27;3.22;;;6.60;99.90;;;;;;6178360;23;20025;-83
2022/01/21 19:45:43;;;;;;;25.95;2.88;;;6.50;99.90;;;;;;6129469;23;20024;-84
2022/01/21 19:48:20;;;;;;;20.13;2.90;;;6.60;99.90;;;;;;6130133;23;20013;-85
2022/01/21 19:50:46;;;;;;;18.35;2.55;;;7.30;99.90;;;;;;6153832;23;20763;-83
2022/01/21 19:53:13;;;;;;;31.17;3.45;;;6.80;99.90;;;;;;6129252;23;20009;-82
2022/01/21 19:55:40;;;;;;;30.50;3.42;;;7.00;99.90;;;;;;6129888;23;20045;-82
2022/01/21 19:58:12;;;;;;;21.27;3.30;;;7.50;99.90;;;;;;6130508;23;20099;-84
2022/01/21 20:07:23;;;;;;;28.45;3.50;;;6.60;99.90;;;;;;6187330;23;20020;-82
2022/01/21 20:09:14;;;;;;;29.95;3.60;;;6.70;99.90;;;;;;6241266;23;20107;-82
2022/01/21 20:16:38;;;;;;;24.23;2.83;;;7.30;99.90;;;;;;6242677;23;20020;-80